Time;durP1;ratioP1;P1;durP2;ratioP2;P2;SDS_P1;SDS_P2;PMS_P1;PMS_P2;Temp;Humidity;BMP_temperature;BMP_pressure;BME280_temperature;BME280_humidity;BME280_pressure;Samples;Min_cycle;Max_cycle;Signal;HPM_P1;HPM_P2
2022/03/13 00:00:40;;;;;;;;;;;-0.20;99.90;;;;;;5053785;28;19924;-73
2022/03/13 00:03:09;;;;;;;;;;;-0.20;99.90;;;;;;5053969;28;19920;-74
2022/03/13 00:05:41;;;;;;;;;;;-0.10;99.90;;;;;;5053836;28;19940;-73
2022/03/13 00:08:16;;;;;;;;;;;-0.20;99.90;;;;;;5054102;28;19919;-73
2022/03/13 00:10:43;;;;;;;;;;;-0.20;99.90;;;;;;5054058;28;19963;-74
2022/03/13 00:13:13;;;;;;;;;;;-0.20;99.90;;;;;;5052340;28;20360;-74
2022/03/13 00:15:39;;;;;;;;;;;-0.20;99.90;;;;;;5052241;28;19925;-73
2022/03/13 00:18:05;;;;;;;;;;;-0.10;99.90;;;;;;5053873;28;19913;-72
2022/03/13 00:20:32;;;;;;;;;;;-0.10;99.90;;;;;;5053436;28;20384;-73
2022/03/13 00:22:57;;;;;;;;;;;-0.10;99.90;;;;;;5053680;28;19919;-73
2022/03/13 00:25:23;;;;;;;;;;;-0.20;99.90;;;;;;5052507;28;20346;-72
2022/03/13 00:27:49;;;;;;;;;;;-0.20;99.90;;;;;;5053459;28;20278;-73
2022/03/13 00:30:16;;;;;;;;;;;-0.20;99.90;;;;;;5051879;28;19913;-74
2022/03/13 00:32:42;;;;;;;;;;;-0.20;99.90;;;;;;5051901;28;19967;-74
2022/03/13 00:35:08;;;;;;;;;;;-0.20;99.90;;;;;;5051983;28;19996;-72
2022/03/13 00:37:33;;;;;;;;;;;-0.20;99.90;;;;;;5053271;28;20003;-73
2022/03/13 00:40:00;;;;;;;;;;;-0.20;99.90;;;;;;5053015;28;20003;-73
2022/03/13 00:42:26;;;;;;;;;;;-0.10;99.90;;;;;;5053477;28;19966;-73
2022/03/13 00:44:51;;;;;;;;;;;-0.20;99.90;;;;;;5052931;28;19921;-73
2022/03/13 00:47:18;;;;;;;;;;;-0.20;99.90;;;;;;5051794;28;20361;-72
2022/03/13 00:49:45;;;;;;;;;;;-0.20;99.90;;;;;;5052782;28;19913;-72
2022/03/13 00:52:10;;;;;;;;;;;-0.20;99.90;;;;;;5051685;28;19920;-72
2022/03/13 00:54:36;;;;;;;;;;;-0.20;99.90;;;;;;5052725;28;19913;-72
2022/03/13 00:57:02;;;;;;;;;;;-0.20;99.90;;;;;;5052686;28;19919;-74
2022/03/13 00:59:27;;;;;;;;;;;-0.20;99.90;;;;;;5052770;28;19936;-74
2022/03/13 01:01:53;;;;;;;;;;;-0.30;99.90;;;;;;5051155;28;19966;-73
2022/03/13 01:04:19;;;;;;;;;;;-0.30;99.90;;;;;;5052535;28;19939;-75
2022/03/13 01:06:46;;;;;;;;;;;-0.30;99.90;;;;;;5051081;28;19920;-72
2022/03/13 01:09:11;;;;;;;;;;;-0.30;99.90;;;;;;5052595;28;19944;-74
2022/03/13 01:11:37;;;;;;;;;;;-0.20;99.90;;;;;;5052496;28;20353;-73
2022/03/13 01:14:04;;;;;;;;;;;-0.20;99.90;;;;;;5052445;28;19913;-74
2022/03/13 01:16:34;;;;;;;;;;;-0.20;99.90;;;;;;5052555;28;20000;-73
2022/03/13 01:18:59;;;;;;;;;;;-0.20;99.90;;;;;;5052422;28;20356;-73
2022/03/13 01:21:26;;;;;;;;;;;-0.30;99.90;;;;;;5052283;28;19909;-74
2022/03/13 01:24:01;;;;;;;;;;;-0.20;99.90;;;;;;5050886;28;19964;-73
2022/03/13 01:26:28;;;;;;;;;;;-0.30;99.90;;;;;;5050901;28;20347;-74
2022/03/13 01:28:56;;;;;;;;;;;-0.20;99.90;;;;;;5052038;28;19936;-75
2022/03/13 01:31:23;;;;;;;;;;;-0.20;99.90;;;;;;5052153;28;19991;-74
2022/03/13 01:33:49;;;;;;;;;;;-0.20;99.90;;;;;;5051885;28;19948;-73
2022/03/13 01:36:14;;;;;;;;;;;-0.20;99.90;;;;;;5051772;28;19948;-74
2022/03/13 01:38:41;;;;;;;;;;;-0.20;99.90;;;;;;5051883;28;19966;-74
2022/03/13 01:41:07;;;;;;;;;;;-0.20;99.90;;;;;;5051870;28;19912;-73
2022/03/13 01:43:33;;;;;;;;;;;-0.20;99.90;;;;;;5052248;28;19935;-73
2022/03/13 01:45:59;;;;;;;;;;;-0.20;99.90;;;;;;5052116;28;19919;-74
2022/03/13 01:48:26;;;;;;;;;;;-0.20;99.90;;;;;;5051759;28;19955;-72
2022/03/13 01:50:52;;;;;;;;;;;-0.20;99.90;;;;;;5050238;28;19963;-73
2022/03/13 01:53:18;;;;;;;;;;;-0.10;99.90;;;;;;5051617;28;19920;-74
2022/03/13 01:55:44;;;;;;;;;;;-0.20;99.90;;;;;;5051662;28;20408;-73
2022/03/13 01:58:09;;;;;;;;;;;-0.10;99.90;;;;;;5052169;28;19920;-72
2022/03/13 02:00:35;;;;;;;;;;;-0.10;99.90;;;;;;5051429;28;19917;-73
2022/03/13 02:03:01;;;;;;;;;;;-0.10;99.90;;;;;;5051795;28;20437;-73
2022/03/13 02:05:31;;;;;;;;;;;-0.10;99.90;;;;;;5051689;28;19967;-72
2022/03/13 02:08:00;;;;;;;;;;;-0.10;99.90;;;;;;5049506;28;21335;-74
2022/03/13 02:10:26;;;;;;;;;;;-0.10;99.90;;;;;;5051246;28;19939;-74
2022/03/13 02:12:52;;;;;;;;;;;-0.10;99.90;;;;;;5050162;28;19921;-74
2022/03/13 02:15:18;;;;;;;;;;;-0.10;99.90;;;;;;5051451;28;19908;-73
2022/03/13 02:17:43;;;;;;;;;;;-0.20;99.90;;;;;;5051559;28;20276;-74
2022/03/13 02:20:13;;;;;;;;;;;-0.20;99.90;;;;;;5049861;28;19909;-72
2022/03/13 02:22:38;;;;;;;;;;;-0.20;99.90;;;;;;5049883;28;20196;-73
2022/03/13 02:25:04;;;;;;;;;;;-0.10;99.90;;;;;;5051146;28;20257;-73
2022/03/13 02:27:32;;;;;;;;;;;-0.10;99.90;;;;;;5049890;28;19917;-73
2022/03/13 02:29:57;;;;;;;;;;;-0.20;99.90;;;;;;5051178;28;20284;-72
2022/03/13 02:32:23;;;;;;;;;;;-0.10;99.90;;;;;;5051352;28;19946;-74
2022/03/13 02:34:49;;;;;;;;;;;-0.10;99.90;;;;;;5051180;28;20122;-73
2022/03/13 02:37:17;;;;;;;;;;;-0.10;99.90;;;;;;5049824;28;20363;-72
2022/03/13 02:39:43;;;;;;;;;;;-0.10;99.90;;;;;;5049703;28;19909;-73
2022/03/13 02:42:08;;;;;;;;;;;-0.10;99.90;;;;;;5049802;28;19927;-73
2022/03/13 02:44:35;;;;;;;;;;;-0.10;99.90;;;;;;5049563;28;20368;-73
2022/03/13 02:47:02;;;;;;;;;;;-0.10;99.90;;;;;;5051062;28;19916;-72
2022/03/13 02:49:28;;;;;;;;;;;-0.10;99.90;;;;;;5054695;28;20202;-74
2022/03/13 02:51:55;;;;;;;;;;;-0.10;99.90;;;;;;5054950;28;20299;-73
2022/03/13 02:54:21;;;;;;;;;;;-0.20;99.90;;;;;;5055174;28;19909;-73
2022/03/13 02:56:46;;;;;;;;;;;-0.10;99.90;;;;;;5054992;28;19917;-74
2022/03/13 02:59:13;;;;;;;;;;;-0.10;99.90;;;;;;5053590;28;19955;-73
2022/03/13 03:01:39;;;;;;;;;;;-0.10;99.90;;;;;;5054752;28;20413;-73
2022/03/13 03:04:05;;;;;;;;;;;-0.10;99.90;;;;;;5054931;28;19917;-74
2022/03/13 03:06:35;;;;;;;;;;;-0.10;99.90;;;;;;5053343;28;20323;-74
2022/03/13 03:09:03;;;;;;;;;;;-0.10;99.90;;;;;;5054976;28;19920;-74
2022/03/13 03:11:31;;;;;;;;;;;-0.10;99.90;;;;;;5054764;28;20000;-74
2022/03/13 03:13:56;;;;;;;;;;;-0.20;99.90;;;;;;5053470;28;20388;-73
2022/03/13 03:16:22;;;;;;;;;;;-0.20;99.90;;;;;;5054551;28;19909;-73
2022/03/13 03:18:48;;;;;;;;;;;-0.20;99.90;;;;;;5053357;28;19921;-73
2022/03/13 03:21:15;;;;;;;;;;;-0.20;99.90;;;;;;5054797;28;19962;-74
2022/03/13 03:23:40;;;;;;;;;;;-0.20;99.90;;;;;;5053052;28;19931;-72
2022/03/13 03:26:07;;;;;;;;;;;-0.20;99.90;;;;;;5053276;28;19909;-73
2022/03/13 03:28:34;;;;;;;;;;;-0.20;99.90;;;;;;5054712;28;19917;-73
2022/03/13 03:31:00;;;;;;;;;;;-0.20;99.90;;;;;;5054377;28;19920;-73
2022/03/13 03:33:26;;;;;;;;;;;-0.20;99.90;;;;;;5054264;28;19913;-73
2022/03/13 03:35:52;;;;;;;;;;;-0.20;99.90;;;;;;5052851;28;19967;-73
2022/03/13 03:38:20;;;;;;;;;;;-0.10;99.90;;;;;;5054639;28;20322;-73
2022/03/13 03:40:47;;;;;;;;;;;-0.20;99.90;;;;;;5054125;28;19912;-74
2022/03/13 03:43:13;;;;;;;;;;;-0.20;99.90;;;;;;5052812;28;19916;-74
2022/03/13 03:45:38;;;;;;;;;;;-0.20;99.90;;;;;;5054118;28;20399;-72
2022/03/13 03:48:04;;;;;;;;;;;-0.30;99.90;;;;;;5052915;28;20280;-73
2022/03/13 03:50:30;;;;;;;;;;;-0.30;99.90;;;;;;5052668;28;19917;-73
2022/03/13 03:52:57;;;;;;;;;;;-0.30;99.90;;;;;;5054191;28;19913;-72
2022/03/13 03:55:24;;;;;;;;;;;-0.20;99.90;;;;;;5054133;28;20390;-72
2022/03/13 03:57:49;;;;;;;;;;;-0.20;99.90;;;;;;5052640;28;19962;-73
2022/03/13 04:00:15;;;;;;;;;;;-0.20;99.90;;;;;;5052696;28;19914;-74
2022/03/13 04:02:41;;;;;;;;;;;-0.20;99.90;;;;;;5053880;28;19929;-73
2022/03/13 04:05:08;;;;;;;;;;;-0.30;99.90;;;;;;5053665;28;19966;-72
2022/03/13 04:07:33;;;;;;;;;;;-0.20;99.90;;;;;;5053798;28;19935;-73
2022/03/13 04:09:59;;;;;;;;;;;-0.20;99.90;;;;;;5052283;28;19995;-74
2022/03/13 04:12:25;;;;;;;;;;;-0.20;99.90;;;;;;5052162;28;19917;-73
2022/03/13 04:14:52;;;;;;;;;;;-0.20;99.90;;;;;;5053572;28;19936;-73
2022/03/13 04:17:17;;;;;;;;;;;-0.20;99.90;;;;;;5053705;28;19924;-73
2022/03/13 04:19:43;;;;;;;;;;;-0.20;99.90;;;;;;5053433;28;19909;-73
2022/03/13 04:22:09;;;;;;;;;;;-0.20;99.90;;;;;;5053443;28;20042;-72
2022/03/13 04:24:34;;;;;;;;;;;-0.20;99.90;;;;;;5053393;28;19943;-74
2022/03/13 04:27:00;;;;;;;;;;;-0.20;99.90;;;;;;5051780;28;19917;-74
2022/03/13 04:29:26;;;;;;;;;;;-0.20;99.90;;;;;;5052016;28;19916;-73
2022/03/13 04:31:54;;;;;;;;;;;-0.20;99.90;;;;;;5051795;28;19924;-73
2022/03/13 04:34:19;;;;;;;;;;;-0.20;99.90;;;;;;5051763;28;19909;-73
2022/03/13 04:36:45;;;;;;;;;;;-0.20;99.90;;;;;;5053040;28;20228;-73
2022/03/13 04:39:11;;;;;;;;;;;-0.30;99.90;;;;;;5051905;28;20053;-73
2022/03/13 04:41:38;;;;;;;;;;;-0.30;99.90;;;;;;5051501;28;19947;-73
2022/03/13 04:44:04;;;;;;;;;;;-0.30;99.90;;;;;;5053058;28;19913;-72
2022/03/13 04:46:30;;;;;;;;;;;-0.30;99.90;;;;;;5052819;28;19909;-72
2022/03/13 04:48:57;;;;;;;;;;;-0.30;99.90;;;;;;5051710;28;20684;-74
2022/03/13 04:51:22;;;;;;;;;;;-0.20;99.90;;;;;;5052863;28;19909;-74
2022/03/13 04:53:48;;;;;;;;;;;-0.30;99.90;;;;;;5052662;28;20391;-74
2022/03/13 04:56:13;;;;;;;;;;;-0.20;99.90;;;;;;5052813;28;19909;-72
2022/03/13 04:58:39;;;;;;;;;;;-0.20;99.90;;;;;;5051592;28;20385;-75
2022/03/13 05:01:05;;;;;;;;;;;-0.20;99.90;;;;;;5052444;28;19917;-73
2022/03/13 05:03:33;;;;;;;;;;;-0.20;99.90;;;;;;5052974;28;20258;-73
2022/03/13 05:06:05;;;;;;;;;;;-0.20;99.90;;;;;;5052526;28;19920;-73
2022/03/13 05:08:31;;;;;;;;;;;-0.20;99.90;;;;;;5052944;28;19917;-74
2022/03/13 05:10:58;;;;;;;;;;;-0.20;99.90;;;;;;5052205;28;19919;-74
2022/03/13 05:13:24;;;;;;;;;;;-0.20;99.90;;;;;;5051127;28;19921;-74
2022/03/13 05:15:52;;;;;;;;;;;-0.10;99.90;;;;;;5052342;28;19909;-74
2022/03/13 05:18:18;;;;;;;;;;;-0.10;99.90;;;;;;5051204;28;19916;-74
2022/03/13 05:20:44;;;;;;;;;;;-0.10;99.90;;;;;;5052253;28;19916;-73
2022/03/13 05:23:10;;;;;;;;;;;-0.10;99.90;;;;;;5052648;28;19917;-74
2022/03/13 05:25:36;;;;;;;;;;;-0.20;99.90;;;;;;5050851;28;20000;-73
2022/03/13 05:28:03;;;;;;;;;;;-0.10;99.90;;;;;;5050692;28;19974;-73
2022/03/13 05:30:29;;;;;;;;;;;-0.10;99.90;;;;;;5052136;28;19921;-73
2022/03/13 05:32:55;;;;;;;;;;;-0.10;99.90;;;;;;5050668;28;19943;-74
2022/03/13 05:35:21;;;;;;;;;;;-0.10;99.90;;;;;;5051967;28;20377;-73
2022/03/13 05:37:47;;;;;;;;;;;0.00;99.90;;;;;;5052128;28;19963;-73
2022/03/13 05:40:14;;;;;;;;;;;0.00;99.90;;;;;;5051877;28;19909;-72
2022/03/13 05:42:44;;;;;;;;;;;0.00;99.90;;;;;;5052008;28;20272;-73
2022/03/13 05:45:11;;;;;;;;;;;0.10;99.90;;;;;;5050750;28;19920;-73
2022/03/13 05:47:47;;;;;;;;;;;0.00;99.90;;;;;;5050428;28;19928;-73
2022/03/13 05:50:13;;;;;;;;;;;0.10;99.90;;;;;;5051741;28;19940;-73
2022/03/13 05:52:39;;;;;;;;;;;0.10;99.90;;;;;;5051503;28;19964;-73
2022/03/13 05:55:05;;;;;;;;;;;0.10;99.90;;;;;;5051432;28;19936;-74
2022/03/13 05:57:31;;;;;;;;;;;0.00;99.90;;;;;;5050316;28;20230;-74
2022/03/13 05:59:56;;;;;;;;;;;0.00;99.90;;;;;;5051666;28;19913;-73
2022/03/13 06:02:22;;;;;;;;;;;0.00;99.90;;;;;;5051456;28;19929;-73
2022/03/13 06:04:48;;;;;;;;;;;0.00;99.90;;;;;;5049990;28;19913;-73
2022/03/13 06:07:14;;;;;;;;;;;0.00;99.90;;;;;;5050033;28;19917;-73
2022/03/13 06:09:39;;;;;;;;;;;0.10;99.90;;;;;;5051285;28;19916;-72
2022/03/13 06:12:05;;;;;;;;;;;0.10;99.90;;;;;;5049961;28;19916;-73
2022/03/13 06:14:31;;;;;;;;;;;0.10;99.90;;;;;;5049839;28;20038;-73
2022/03/13 06:16:57;;;;;;;;;;;0.10;99.90;;;;;;5051228;28;20000;-74
2022/03/13 06:19:22;;;;;;;;;;;0.10;99.90;;;;;;5049707;28;19995;-72
2022/03/13 06:21:48;;;;;;;;;;;0.00;99.90;;;;;;5049921;28;19928;-73
2022/03/13 06:24:14;;;;;;;;;;;0.10;99.90;;;;;;5050861;28;19916;-73
2022/03/13 06:26:39;;;;;;;;;;;0.10;99.90;;;;;;5049873;28;19923;-74
2022/03/13 06:29:05;;;;;;;;;;;0.10;99.90;;;;;;5051120;28;19909;-73
2022/03/13 06:31:30;;;;;;;;;;;0.00;99.90;;;;;;5051433;28;19996;-72
2022/03/13 06:33:56;;;;;;;;;;;0.00;99.90;;;;;;5051604;28;19922;-72
2022/03/13 06:36:22;;;;;;;;;;;0.00;99.90;;;;;;5049709;28;20340;-73
2022/03/13 06:38:48;;;;;;;;;;;0.10;99.90;;;;;;5049673;28;20335;-73
2022/03/13 06:41:13;;;;;;;;;;;0.10;99.90;;;;;;5049693;28;19963;-72
2022/03/13 06:43:39;;;;;;;;;;;0.10;99.90;;;;;;5051364;28;19931;-73
2022/03/13 06:46:05;;;;;;;;;;;0.00;99.90;;;;;;5051290;28;19915;-73
2022/03/13 06:48:31;;;;;;;;;;;0.00;99.90;;;;;;5051347;28;19917;-73
2022/03/13 06:50:59;;;;;;;;;;;0.10;99.90;;;;;;5049593;28;19913;-72
2022/03/13 06:53:25;;;;;;;;;;;0.10;99.90;;;;;;5049595;28;19924;-73
2022/03/13 06:55:52;;;;;;;;;;;0.10;99.90;;;;;;5049647;28;19909;-73
2022/03/13 06:58:18;;;;;;;;;;;0.10;99.90;;;;;;5049794;28;19970;-73
2022/03/13 07:00:44;;;;;;;;;;;0.10;99.90;;;;;;5049346;28;19916;-74
2022/03/13 07:03:10;;;;;;;;;;;0.10;99.90;;;;;;5050846;28;19921;-73
2022/03/13 07:05:36;;;;;;;;;;;0.00;99.90;;;;;;5050735;28;19912;-72
2022/03/13 07:08:02;;;;;;;;;;;0.00;99.90;;;;;;5049746;28;20273;-74
2022/03/13 07:10:27;;;;;;;;;;;0.00;99.90;;;;;;5049384;28;20373;-74
2022/03/13 07:12:57;;;;;;;;;;;0.00;99.90;;;;;;5051048;28;19917;-74
2022/03/13 07:15:24;;;;;;;;;;;-0.10;99.90;;;;;;5050820;28;20365;-74
2022/03/13 07:17:49;;;;;;;;;;;0.00;99.90;;;;;;5051040;28;19916;-72
2022/03/13 07:20:15;;;;;;;;;;;0.00;99.90;;;;;;5049398;28;20546;-73
2022/03/13 07:22:42;;;;;;;;;;;-0.10;99.90;;;;;;5050894;28;20013;-73
2022/03/13 07:25:08;;;;;;;;;;;0.00;99.90;;;;;;5049089;28;19929;-74
2022/03/13 07:27:34;;;;;;;;;;;0.00;99.90;;;;;;5050869;28;19924;-72
2022/03/13 07:29:59;;;;;;;;;;;0.00;99.90;;;;;;5050518;28;20309;-73
2022/03/13 07:32:25;;;;;;;;;;;0.00;99.90;;;;;;5050548;28;19921;-73
2022/03/13 07:34:50;;;;;;;;;;;0.00;99.90;;;;;;5052899;28;19928;-74
2022/03/13 07:37:16;;;;;;;;;;;0.00;99.90;;;;;;5052837;28;20288;-74
2022/03/13 07:39:42;;;;;;;;;;;0.10;99.90;;;;;;5052756;28;19919;-73
2022/03/13 07:42:12;;;;;;;;;;;0.10;99.90;;;;;;5052804;28;20332;-73
2022/03/13 07:44:37;;;;;;;;;;;0.20;99.90;;;;;;5052779;28;20003;-74
2022/03/13 07:47:03;;;;;;;;;;;0.20;99.90;;;;;;5054190;28;20022;-73
2022/03/13 07:49:29;;;;;;;;;;;0.20;99.90;;;;;;5052643;28;19909;-74
2022/03/13 07:51:54;;;;;;;;;;;0.20;99.90;;;;;;5054259;28;20010;-74
2022/03/13 07:54:20;;;;;;;;;;;0.20;99.90;;;;;;5052661;28;19984;-74
2022/03/13 07:56:46;;;;;;;;;;;0.10;99.90;;;;;;5053932;28;19924;-74
2022/03/13 07:59:12;;;;;;;;;;;0.10;99.90;;;;;;5053954;28;19940;-73
2022/03/13 08:01:38;;;;;;;;;;;0.10;99.90;;;;;;5053539;28;19925;-74
2022/03/13 08:04:05;;;;;;;;;;;0.10;99.90;;;;;;5053688;28;20357;-74
2022/03/13 08:06:39;;;;;;;;;;;0.10;99.90;;;;;;5052313;28;19908;-73
2022/03/13 08:09:05;;;;;;;;;;;0.10;99.90;;;;;;5053801;28;19982;-74
2022/03/13 08:11:34;;;;;;;;;;;0.10;99.90;;;;;;5053748;28;19931;-74
2022/03/13 08:13:59;;;;;;;;;;;0.10;99.90;;;;;;5052322;28;20123;-73
2022/03/13 08:16:27;;;;;;;;;;;0.10;99.90;;;;;;5053528;28;20333;-73
2022/03/13 08:18:53;;;;;;;;;;;0.20;99.90;;;;;;5053563;28;20433;-73
2022/03/13 08:21:18;;;;;;;;;;;0.20;99.90;;;;;;5053320;28;19912;-74
2022/03/13 08:23:44;;;;;;;;;;;0.20;99.90;;;;;;5052020;28;19966;-73
2022/03/13 08:26:11;;;;;;;;;;;0.30;99.90;;;;;;5053349;28;19923;-74
2022/03/13 08:28:37;;;;;;;;;;;0.30;99.90;;;;;;5052232;28;19924;-75
2022/03/13 08:31:03;;;;;;;;;;;0.30;99.90;;;;;;5053287;28;19935;-73
2022/03/13 08:33:29;;;;;;;;;;;0.30;99.90;;;;;;5053841;28;20272;-74
2022/03/13 08:35:55;;;;;;;;;;;0.30;99.90;;;;;;5053148;28;19908;-74
2022/03/13 08:38:20;;;;;;;;;;;0.30;99.90;;;;;;5052148;28;20408;-74
2022/03/13 08:40:46;;;;;;;;;;;0.30;99.90;;;;;;5053069;28;19957;-74
2022/03/13 08:43:12;;;;;;;;;;;0.40;99.90;;;;;;5053018;28;19946;-72
2022/03/13 08:45:38;;;;;;;;;;;0.30;99.90;;;;;;5050980;28;19913;-73
2022/03/13 08:48:04;;;;;;;;;;;0.40;99.90;;;;;;5053557;28;20257;-73
2022/03/13 08:50:32;;;;;;;;;;;0.40;99.90;;;;;;5052983;28;19916;-74
2022/03/13 08:52:58;;;;;;;;;;;0.40;99.90;;;;;;5051656;28;19924;-73
2022/03/13 08:55:24;;;;;;;;;;;0.40;99.90;;;;;;5052689;28;19916;-73
2022/03/13 08:57:49;;;;;;;;;;;0.50;99.90;;;;;;5051296;28;20386;-73
2022/03/13 09:00:16;;;;;;;;;;;0.50;99.90;;;;;;5052784;28;19913;-74
2022/03/13 09:02:42;;;;;;;;;;;0.50;99.90;;;;;;5052736;28;19929;-74
2022/03/13 09:05:08;;;;;;;;;;;0.60;99.90;;;;;;5052540;28;20353;-74
2022/03/13 09:07:34;;;;;;;;;;;0.60;99.90;;;;;;5051166;28;20016;-72
2022/03/13 09:10:02;;;;;;;;;;;0.50;99.90;;;;;;5052542;28;19908;-72
2022/03/13 09:12:30;;;;;;;;;;;0.40;99.90;;;;;;5051071;28;20299;-72
2022/03/13 09:14:56;;;;;;;;;;;0.40;99.90;;;;;;5052209;28;20404;-75
2022/03/13 09:17:21;;;;;;;;;;;0.40;99.90;;;;;;5052527;28;20012;-73
2022/03/13 09:19:47;;;;;;;;;;;0.50;99.90;;;;;;5051030;28;20003;-73
2022/03/13 09:22:14;;;;;;;;;;;0.60;99.90;;;;;;5052390;28;20280;-74
2022/03/13 09:24:39;;;;;;;;;;;0.70;99.90;;;;;;5051023;28;19916;-75
2022/03/13 09:27:05;;;;;;;;;;;0.80;99.90;;;;;;5052274;28;20027;-73
2022/03/13 09:29:31;;;;;;;;;;;0.80;99.90;;;;;;5052202;28;19920;-73
2022/03/13 09:31:56;;;;;;;;;;;0.90;99.90;;;;;;5052269;28;19921;-73
2022/03/13 09:34:22;;;;;;;;;;;0.90;99.90;;;;;;5052351;28;19913;-74
2022/03/13 09:36:47;;;;;;;;;;;1.00;99.90;;;;;;5052070;28;19921;-73
2022/03/13 09:39:13;;;;;;;;;;;1.10;99.90;;;;;;5050784;28;19909;-74
2022/03/13 09:41:39;;;;;;;;;;;1.10;99.90;;;;;;5051802;28;19928;-73
2022/03/13 09:44:07;;;;;;;;;;;1.10;99.90;;;;;;5052055;28;19959;-74
2022/03/13 09:46:35;;;;;;;;;;;1.00;99.90;;;;;;5051904;28;19916;-74
2022/03/13 09:49:00;;;;;;;;;;;1.10;99.90;;;;;;5051772;28;20006;-74
2022/03/13 09:51:26;;;;;;;;;;;1.10;99.90;;;;;;5051759;28;19971;-74
2022/03/13 09:53:52;;;;;;;;;;;1.20;99.90;;;;;;5052119;28;19913;-73
2022/03/13 09:56:18;;;;;;;;;;;1.20;99.90;;;;;;5050382;28;19943;-73
2022/03/13 09:58:45;;;;;;;;;;;1.20;99.90;;;;;;5050845;28;20280;-74
2022/03/13 10:01:11;;;;;;;;;;;1.20;99.90;;;;;;5049969;28;19917;-74
2022/03/13 10:03:38;;;;;;;;;;;1.20;99.90;;;;;;5051430;28;19921;-74
2022/03/13 10:06:03;;;;;;;;;;;1.20;99.90;;;;;;5050049;28;19909;-73
2022/03/13 10:08:30;;;;;;;;;;;1.20;99.90;;;;;;5049985;28;19999;-73
2022/03/13 10:10:56;;;;;;;;;;;1.20;99.90;;;;;;5050074;28;19912;-73
2022/03/13 10:13:36;;;;;;;;;;;1.20;99.90;;;;;;5051716;28;19964;-73
2022/03/13 10:16:01;;;;;;;;;;;1.20;99.90;;;;;;5050030;28;20412;-73
2022/03/13 10:18:27;;;;;;;;;;;1.30;99.90;;;;;;5051854;28;19952;-73
2022/03/13 10:20:53;;;;;;;;;;;1.30;99.90;;;;;;5049837;28;19940;-74
2022/03/13 10:23:22;;;;;;;;;;;1.30;99.90;;;;;;5049849;28;19921;-74
2022/03/13 10:25:49;;;;;;;;;;;1.30;99.90;;;;;;5049920;28;20368;-73
2022/03/13 10:28:18;;;;;;;;;;;1.40;99.90;;;;;;5051595;28;19983;-75
2022/03/13 10:30:45;;;;;;;;;;;1.40;99.90;;;;;;5050144;28;19913;-74
2022/03/13 10:33:10;;;;;;;;;;;1.30;99.90;;;;;;5051087;28;20411;-73
2022/03/13 10:35:36;;;;;;;;;;;1.30;99.90;;;;;;5049901;28;19909;-73
2022/03/13 10:38:22;;;;;;;;;;;1.30;99.90;;;;;;5051473;28;20015;-73
2022/03/13 10:40:56;;;;;;;;;;;1.20;99.90;;;;;;5050706;28;20418;-73
2022/03/13 10:43:23;;;;;;;;;;;1.10;99.90;;;;;;5049916;28;19956;-73
2022/03/13 10:45:54;;;;;;;;;;;1.10;99.90;;;;;;5051108;28;19928;-74
2022/03/13 10:48:32;;;;;;;;;;;1.10;99.90;;;;;;5051488;28;19921;-73
2022/03/13 10:50:59;;;;;;;;;;;1.00;99.90;;;;;;5049879;28;20280;-73
2022/03/13 10:53:27;;;;;;;;;;;1.00;99.90;;;;;;5049988;28;19917;-74
2022/03/13 10:55:59;;;;;;;;;;;0.90;99.90;;;;;;5049707;28;19984;-74
2022/03/13 10:58:28;;;;;;;;;;;0.90;99.90;;;;;;5051399;28;20148;-74
2022/03/13 11:01:05;;;;;;;;;;;0.90;99.90;;;;;;5050897;28;20015;-73
2022/03/13 11:03:31;;;;;;;;;;;0.90;99.90;;;;;;5051206;28;19924;-72
2022/03/13 11:05:57;;;;;;;;;;;1.00;99.90;;;;;;5050900;28;19920;-74
2022/03/13 11:08:22;;;;;;;;;;;1.20;99.90;;;;;;5049867;28;19921;-75
2022/03/13 11:10:48;;;;;;;;;;;1.30;99.90;;;;;;5053499;28;20361;-73
2022/03/13 11:13:14;;;;;;;;;;;1.30;99.90;;;;;;5053454;28;19967;-73
2022/03/13 11:15:42;;;;;;;;;;;1.30;99.90;;;;;;5054688;28;20361;-74
2022/03/13 11:18:09;;;;;;;;;;;1.30;99.90;;;;;;5054987;28;20381;-73
2022/03/13 11:20:35;;;;;;;;;;;1.40;99.90;;;;;;5054624;28;19919;-73
2022/03/13 11:23:01;;;;;;;;;;;1.40;99.90;;;;;;5053441;28;20436;-73
2022/03/13 11:25:27;;;;;;;;;;;1.40;99.90;;;;;;5054536;28;20261;-73
2022/03/13 11:27:53;;;;;;;;;;;1.30;99.90;;;;;;5054628;28;19917;-73
2022/03/13 11:30:29;;;;;;;;;;;1.30;99.90;;;;;;5054390;28;19916;-74
2022/03/13 11:32:55;;;;;;;;;;;1.20;99.90;;;;;;5052945;28;19951;-73
2022/03/13 11:35:22;;;;;;;;;;;1.20;99.90;;;;;;5053048;28;19936;-73
2022/03/13 11:37:51;;;;;;;;;;;1.20;99.90;;;;;;5054564;28;19916;-73
2022/03/13 11:40:18;;;;;;;;;;;1.10;99.90;;;;;;5053005;28;19909;-74
2022/03/13 11:42:48;;;;;;;;;;;1.20;99.90;;;;;;5054432;28;20276;-75
2022/03/13 11:45:32;;;;;;;;;;;1.20;99.90;;;;;;5054126;28;19913;-74
2022/03/13 11:48:04;;;;;;;;;;;1.10;99.90;;;;;;5054141;28;19971;-74
2022/03/13 11:50:49;;;;;;;;;;;1.10;99.90;;;;;;5054107;28;20003;-74
2022/03/13 11:53:20;;;;;;;;;;;1.10;99.90;;;;;;5054377;28;20347;-73
2022/03/13 11:56:02;;;;;;;;;;;1.10;99.90;;;;;;5054174;28;20319;-73
2022/03/13 11:58:46;;;;;;;;;;;1.20;99.90;;;;;;5052811;28;19938;-72
2022/03/13 12:01:15;;;;;;;;;;;1.20;99.90;;;;;;5052300;28;19917;-72
2022/03/13 12:03:59;;;;;;;;;;;1.20;99.90;;;;;;5052344;28;19917;-73
2022/03/13 12:06:43;;;;;;;;;;;1.20;99.90;;;;;;5052485;28;19908;-74
2022/03/13 12:09:12;;;;;;;;;;;1.20;99.90;;;;;;5053957;28;19909;-73
2022/03/13 12:11:38;;;;;;;;;;;1.20;99.90;;;;;;5054043;28;19923;-74
2022/03/13 12:14:07;;;;;;;;;;;1.10;99.90;;;;;;5052254;28;20000;-74
2022/03/13 12:16:34;;;;;;;;;;;1.00;99.90;;;;;;5053633;28;19955;-73
2022/03/13 12:19:00;;;;;;;;;;;1.00;99.90;;;;;;5053625;28;19913;-73
2022/03/13 12:21:25;;;;;;;;;;;1.00;99.90;;;;;;5052571;28;19978;-73
2022/03/13 12:23:52;;;;;;;;;;;1.00;99.90;;;;;;5053691;28;19947;-73
2022/03/13 12:26:19;;;;;;;;;;;1.00;99.90;;;;;;5053351;28;19955;-73
2022/03/13 12:28:45;;;;;;;;;;;1.00;99.90;;;;;;5053273;28;19960;-74
2022/03/13 12:31:11;;;;;;;;;;;0.90;99.90;;;;;;5051990;28;20277;-74
2022/03/13 12:33:37;;;;;;;;;;;0.90;99.90;;;;;;5052142;28;19991;-74
2022/03/13 12:36:03;;;;;;;;;;;0.80;99.90;;;;;;5052055;28;20365;-73
2022/03/13 12:38:30;;;;;;;;;;;0.80;99.90;;;;;;5051958;28;19917;-72
2022/03/13 12:40:56;;;;;;;;;;;0.80;99.90;;;;;;5051651;28;19955;-74
2022/03/13 12:43:22;;;;;;;;;;;0.70;99.90;;;;;;5053574;28;20119;-74
2022/03/13 12:45:51;;;;;;;;;;;0.80;99.90;;;;;;5052886;28;19913;-74
2022/03/13 12:48:17;;;;;;;;;;;0.80;99.90;;;;;;5053484;28;20381;-74
2022/03/13 12:50:47;;;;;;;;;;;0.80;99.90;;;;;;5051602;28;19938;-73
2022/03/13 12:53:26;;;;;;;;;;;0.70;99.90;;;;;;5053486;28;20235;-74
2022/03/13 12:55:52;;;;;;;;;;;0.70;99.90;;;;;;5051620;28;19973;-73
2022/03/13 12:58:19;;;;;;;;;;;0.80;99.90;;;;;;5053408;28;19924;-73
2022/03/13 13:00:45;;;;;;;;;;;0.80;99.90;;;;;;5051209;28;19915;-74
2022/03/13 13:03:10;;;;;;;;;;;0.80;99.90;;;;;;5051566;28;19920;-74
2022/03/13 13:05:36;;;;;;;;;;;0.90;99.90;;;;;;5052472;28;19991;-73
2022/03/13 13:08:02;;;;;;;;;;;0.90;99.90;;;;;;5051565;28;19931;-74
2022/03/13 13:10:28;;;;;;;;;;;0.90;99.90;;;;;;5052455;28;20613;-73
2022/03/13 13:12:54;;;;;;;;;;;0.90;99.90;;;;;;5051254;28;19921;-73
2022/03/13 13:15:23;;;;;;;;;;;0.80;99.90;;;;;;5052536;28;19909;-74
2022/03/13 13:17:50;;;;;;;;;;;0.80;99.90;;;;;;5052456;28;19944;-74
2022/03/13 13:20:18;;;;;;;;;;;0.80;99.90;;;;;;5051380;28;20023;-73
2022/03/13 13:22:44;;;;;;;;;;;0.80;99.90;;;;;;5052738;28;20434;-74
2022/03/13 13:25:10;;;;;;;;;;;0.80;99.90;;;;;;5052441;28;19916;-73
2022/03/13 13:27:37;;;;;;;;;;;0.70;99.90;;;;;;5053030;28;19917;-73
2022/03/13 13:30:22;;;;;;;;;;;0.70;99.90;;;;;;5051236;28;20024;-75
2022/03/13 13:33:08;;;;;;;;;;;0.80;99.90;;;;;;5051159;28;20406;-74
2022/03/13 13:35:34;;;;;;;;;;;0.80;99.90;;;;;;5051896;28;19952;-74
2022/03/13 13:38:00;;;;;;;;;;;0.80;99.90;;;;;;5052372;28;19917;-74
2022/03/13 13:40:35;;;;;;;;;;;0.70;99.90;;;;;;5052069;28;20253;-72
2022/03/13 13:43:03;;;;;;;;;;;0.80;99.90;;;;;;5050714;28;19921;-74
2022/03/13 13:45:29;;;;;;;;;;;0.70;99.90;;;;;;5050434;28;19923;-73
2022/03/13 13:48:14;;;;;;;;;;;0.70;99.90;;;;;;5050805;28;19917;-74
2022/03/13 13:50:40;;;;;;;;;;;0.70;99.90;;;;;;5051889;28;19944;-74
2022/03/13 13:53:08;;;;;;;;;;;0.70;99.90;;;;;;5050972;28;19948;-75
2022/03/13 13:55:38;;;;;;;;;;;0.60;99.90;;;;;;5050435;28;19974;-74
2022/03/13 13:58:17;;;;;;;;;;;0.70;99.90;;;;;;5050662;28;20070;-74
2022/03/13 14:00:45;;;;;;;;;;;0.70;99.90;;;;;;5051488;28;19920;-73
2022/03/13 14:03:10;;;;;;;;;;;0.70;99.90;;;;;;5052163;28;20015;-73
2022/03/13 14:05:36;;;;;;;;;;;0.60;99.90;;;;;;5050530;28;20000;-74
2022/03/13 14:08:05;;;;;;;;;;;0.70;99.90;;;;;;5052010;28;19917;-72
2022/03/13 14:10:31;;;;;;;;;;;0.70;99.90;;;;;;5051670;28;19964;-73
2022/03/13 14:12:57;;;;;;;;;;;0.70;99.90;;;;;;5052007;28;19921;-74
2022/03/13 14:15:23;;;;;;;;;;;0.70;99.90;;;;;;5051671;28;19955;-72
2022/03/13 14:17:49;;;;;;;;;;;0.70;99.90;;;;;;5052093;28;19925;-73
2022/03/13 14:20:14;;;;;;;;;;;0.70;99.90;;;;;;5051699;28;19909;-72
2022/03/13 14:22:41;;;;;;;;;;;0.70;99.90;;;;;;5050169;28;19928;-72